Time;durP1;ratioP1;P1;durP2;ratioP2;P2;SDS_P1;SDS_P2;PMS_P1;PMS_P2;Temp;Humidity;BMP_temperature;BMP_pressure;BME280_temperature;BME280_humidity;BME280_pressure;Samples;Min_cycle;Max_cycle;Signal;HPM_P1;HPM_P2
2022/08/28 00:01:07;;;;;;;5.77;2.37;;;17.40;99.90;;;;;;6064629;23;20613;-62
2022/08/28 00:03:36;;;;;;;3.93;2.30;;;17.40;99.90;;;;;;6065719;23;20905;-62
2022/08/28 00:06:05;;;;;;;5.27;2.40;;;17.40;99.90;;;;;;6064530;23;20628;-62
2022/08/28 00:08:34;;;;;;;5.80;2.50;;;17.50;99.90;;;;;;6066079;23;20164;-62
2022/08/28 00:11:04;;;;;;;5.40;2.70;;;17.50;99.90;;;;;;6037309;23;20164;-62
2022/08/28 00:13:33;;;;;;;5.83;2.70;;;17.50;99.90;;;;;;6063959;23;20243;-61
2022/08/28 00:16:01;;;;;;;4.93;3.03;;;17.50;99.90;;;;;;6063469;23;20606;-61
2022/08/28 00:18:30;;;;;;;3.17;2.33;;;17.50;99.90;;;;;;6067766;23;20172;-62
2022/08/28 00:20:59;;;;;;;6.47;2.63;;;17.50;99.90;;;;;;6065774;23;20203;-62
2022/08/28 00:23:28;;;;;;;8.30;2.80;;;17.50;99.90;;;;;;6042371;23;20200;-62
2022/08/28 00:27:51;;;;;;;2.57;2.37;;;17.50;99.90;;;;;;6066902;23;20199;-62
2022/08/28 00:29:00;;;;;;;4.43;2.83;;;17.60;99.90;;;;;;6065714;23;20628;-61
2022/08/28 00:31:29;;;;;;;3.03;2.70;;;17.60;99.90;;;;;;6066744;23;20201;-61
2022/08/28 00:34:01;;;;;;;4.23;2.77;;;17.60;99.90;;;;;;6042990;23;20249;-61
2022/08/28 00:36:30;;;;;;;3.30;2.50;;;17.60;99.90;;;;;;6040244;23;20179;-62
2022/08/28 00:38:59;;;;;;;2.73;2.50;;;17.60;99.90;;;;;;6067505;23;20257;-61
2022/08/28 00:41:30;;;;;;;3.73;2.50;;;17.60;99.90;;;;;;6066730;23;20182;-62
2022/08/28 00:44:10;;;;;;;7.47;2.90;;;17.60;99.90;;;;;;6068384;23;20161;-62
2022/08/28 00:46:39;;;;;;;4.53;2.80;;;17.60;99.90;;;;;;6064768;23;20179;-62
2022/08/28 00:49:08;;;;;;;4.13;2.70;;;17.60;99.90;;;;;;6066226;23;20245;-61
2022/08/28 00:54:24;;;;;;;5.07;2.90;;;17.60;99.90;;;;;;6066921;23;20176;-62
2022/08/28 00:56:56;;;;;;;9.10;3.17;;;17.60;99.90;;;;;;6066345;23;20250;-62
2022/08/28 00:59:25;;;;;;;7.33;3.20;;;17.60;99.90;;;;;;6066533;23;20255;-61
2022/08/28 01:01:56;;;;;;;5.93;2.90;;;17.60;99.90;;;;;;6065411;23;20188;-62
2022/08/28 01:04:28;;;;;;;10.07;2.80;;;17.60;99.90;;;;;;6067111;23;20203;-62
2022/08/28 01:06:58;;;;;;;6.87;2.80;;;17.60;99.90;;;;;;6066222;23;20750;-61
2022/08/28 01:09:29;;;;;;;6.13;3.03;;;17.60;99.90;;;;;;6065828;23;20168;-62
2022/08/28 01:12:02;;;;;;;8.57;2.87;;;17.60;99.90;;;;;;6066093;23;20307;-61
2022/08/28 01:14:33;;;;;;;4.63;2.77;;;17.60;99.90;;;;;;6066026;23;20199;-62
2022/08/28 01:17:02;;;;;;;8.00;2.90;;;17.60;99.90;;;;;;6066065;23;20166;-62
2022/08/28 01:19:34;;;;;;;4.23;2.77;;;17.60;99.90;;;;;;6065838;23;20255;-62
2022/08/28 01:22:17;;;;;;;7.63;3.40;;;17.60;99.90;;;;;;6066387;23;20247;-62
2022/08/28 01:24:49;;;;;;;8.17;3.37;;;17.60;99.90;;;;;;6065738;23;20167;-62
2022/08/28 01:27:18;;;;;;;5.83;2.87;;;17.60;99.90;;;;;;6066265;23;20835;-62
2022/08/28 01:29:50;;;;;;;4.07;2.70;;;17.60;99.90;;;;;;6065795;23;20161;-62
2022/08/28 01:32:31;;;;;;;5.93;2.70;;;17.60;99.90;;;;;;6066423;23;20181;-62
2022/08/28 01:35:00;;;;;;;8.40;3.37;;;17.60;99.90;;;;;;6065281;23;20167;-62
2022/08/28 01:37:30;;;;;;;5.83;3.03;;;17.60;99.90;;;;;;6040238;23;20172;-62
2022/08/28 01:40:01;;;;;;;8.13;3.10;;;17.60;99.90;;;;;;6040760;23;20255;-62
2022/08/28 01:42:29;;;;;;;6.90;2.97;;;17.60;99.90;;;;;;6066135;23;20198;-62
2022/08/28 01:44:57;;;;;;;5.23;3.03;;;17.60;99.90;;;;;;6066245;23;20693;-62
2022/08/28 01:47:26;;;;;;;5.03;2.90;;;17.50;99.90;;;;;;6065916;23;20566;-61
2022/08/28 01:49:55;;;;;;;6.57;3.23;;;17.60;99.90;;;;;;6039020;23;20171;-62
2022/08/28 01:52:23;;;;;;;6.17;2.93;;;17.50;99.90;;;;;;6066600;23;20188;-61
2022/08/28 01:54:53;;;;;;;4.10;3.10;;;17.50;99.90;;;;;;6066044;23;20179;-62
2022/08/28 01:57:26;;;;;;;5.83;3.03;;;17.50;99.90;;;;;;6039375;23;20275;-62
2022/08/28 01:59:54;;;;;;;8.17;3.30;;;17.50;99.90;;;;;;6040783;23;20248;-61
2022/08/28 02:02:23;;;;;;;5.00;2.93;;;17.50;99.90;;;;;;6065640;23;20205;-61
2022/08/28 02:04:52;;;;;;;9.30;3.60;;;17.50;99.90;;;;;;6064795;23;20168;-62
2022/08/28 02:07:20;;;;;;;6.23;3.40;;;17.50;99.90;;;;;;6065502;23;20194;-61
2022/08/28 02:09:49;;;;;;;4.00;3.30;;;17.50;99.90;;;;;;6066539;23;20210;-61
2022/08/28 02:12:18;;;;;;;7.30;3.33;;;17.40;99.90;;;;;;6065269;23;20176;-61
2022/08/28 02:14:48;;;;;;;12.10;3.63;;;17.50;99.90;;;;;;6065950;23;20172;-62
2022/08/28 02:17:17;;;;;;;7.33;3.60;;;17.50;99.90;;;;;;6065079;23;20182;-61
2022/08/28 02:19:45;;;;;;;4.10;3.40;;;17.40;99.90;;;;;;6040798;23;20483;-61
2022/08/28 02:22:13;;;;;;;7.17;3.47;;;17.40;99.90;;;;;;6066025;23;20269;-61
2022/08/28 02:24:41;;;;;;;6.77;3.13;;;17.40;99.90;;;;;;6066236;23;20172;-62
2022/08/28 02:27:10;;;;;;;7.97;3.53;;;17.40;99.90;;;;;;6063924;23;20769;-61
2022/08/28 02:29:38;;;;;;;5.53;3.77;;;17.40;99.90;;;;;;6065377;23;20188;-61
2022/08/28 02:32:08;;;;;;;6.47;3.77;;;17.40;99.90;;;;;;6065017;23;20726;-62
2022/08/28 02:34:36;;;;;;;9.60;3.80;;;17.40;99.90;;;;;;6064433;23;20263;-62
2022/08/28 02:37:07;;;;;;;6.70;3.97;;;17.40;99.90;;;;;;6064791;23;20242;-62
2022/08/28 02:39:36;;;;;;;5.97;3.70;;;17.40;99.90;;;;;;6040274;23;20250;-62
2022/08/28 02:42:04;;;;;;;12.87;4.10;;;17.40;99.90;;;;;;6065665;23;20646;-62
2022/08/28 02:44:33;;;;;;;10.40;3.53;;;17.40;99.90;;;;;;6066845;23;20178;-62
2022/08/28 02:47:02;;;;;;;9.00;4.10;;;17.40;99.90;;;;;;6064706;23;20704;-62
2022/08/28 02:49:32;;;;;;;10.13;3.50;;;17.40;99.90;;;;;;6064448;23;20273;-62
2022/08/28 02:52:05;;;;;;;8.73;3.50;;;17.30;99.90;;;;;;6064084;23;20223;-62
2022/08/28 02:54:34;;;;;;;6.13;3.40;;;17.30;99.90;;;;;;6064990;23;20168;-62
2022/08/28 02:57:02;;;;;;;9.33;3.67;;;17.30;99.90;;;;;;6061800;23;20171;-62
2022/08/28 02:59:31;;;;;;;4.70;3.60;;;17.30;99.90;;;;;;6065472;23;20177;-62
2022/08/28 03:02:02;;;;;;;8.40;4.07;;;17.30;99.90;;;;;;6064397;23;20247;-62
2022/08/28 03:04:32;;;;;;;10.27;3.77;;;17.30;99.90;;;;;;6040662;23;20183;-62
2022/08/28 03:07:01;;;;;;;12.17;3.77;;;17.30;99.90;;;;;;6064271;23;20175;-62
2022/08/28 03:09:30;;;;;;;6.60;3.57;;;17.30;99.90;;;;;;6065264;23;20643;-62
2022/08/28 03:11:58;;;;;;;8.10;4.10;;;17.20;99.90;;;;;;6064273;23;20226;-62
2022/08/28 03:14:27;;;;;;;5.80;3.73;;;17.20;99.90;;;;;;6040464;23;20616;-62
2022/08/28 03:16:55;;;;;;;7.37;4.00;;;17.20;99.90;;;;;;6063987;23;20257;-62
2022/08/28 03:19:24;;;;;;;5.73;3.87;;;17.20;99.90;;;;;;6066059;23;20612;-62
2022/08/28 03:21:56;;;;;;;10.70;4.30;;;17.20;99.90;;;;;;6064848;23;20214;-62
2022/08/28 03:24:24;;;;;;;8.20;4.03;;;17.20;99.90;;;;;;6066030;23;20176;-62
2022/08/28 03:26:53;;;;;;;9.00;4.37;;;17.20;99.90;;;;;;6037964;23;20297;-62
2022/08/28 03:29:22;;;;;;;7.80;4.10;;;17.20;99.90;;;;;;6040101;23;20508;-62
2022/08/28 03:31:50;;;;;;;7.63;4.37;;;17.20;99.90;;;;;;6064900;23;20556;-62
2022/08/28 03:34:18;;;;;;;7.03;3.90;;;17.10;99.90;;;;;;6065844;23;20168;-62
2022/08/28 03:36:47;;;;;;;8.70;3.87;;;17.10;99.90;;;;;;6063667;23;20228;-62
2022/08/28 03:39:18;;;;;;;9.10;4.53;;;17.10;99.90;;;;;;6065128;23;20260;-62
2022/08/28 03:41:46;;;;;;;8.70;4.23;;;17.00;99.90;;;;;;6064419;23;20160;-62
2022/08/28 03:44:15;;;;;;;13.27;4.30;;;17.00;99.90;;;;;;6065880;23;20268;-63
2022/08/28 03:46:43;;;;;;;11.10;4.17;;;17.00;99.90;;;;;;6062578;23;20166;-62
2022/08/28 03:49:12;;;;;;;7.87;3.97;;;17.00;99.90;;;;;;6063056;23;20218;-62
2022/08/28 03:51:41;;;;;;;5.60;3.80;;;17.00;99.90;;;;;;6014486;23;20244;-62
2022/08/28 03:54:09;;;;;;;12.17;4.50;;;17.00;99.90;;;;;;6064639;23;20199;-62
2022/08/28 03:56:42;;;;;;;11.07;3.83;;;17.00;99.90;;;;;;6064262;23;20251;-62
2022/08/28 03:59:10;;;;;;;11.23;4.50;;;17.00;99.90;;;;;;6064763;23;20201;-62
2022/08/28 04:01:39;;;;;;;8.77;4.13;;;16.90;99.90;;;;;;6063402;23;20249;-62
2022/08/28 04:04:08;;;;;;;10.10;4.00;;;16.90;99.90;;;;;;6039812;23;20180;-62
2022/08/28 04:06:36;;;;;;;10.93;4.00;;;16.90;99.90;;;;;;6065174;23;20764;-62
2022/08/28 04:09:05;;;;;;;7.60;3.90;;;16.90;99.90;;;;;;6063746;23;20223;-62
2022/08/28 04:11:40;;;;;;;9.43;3.67;;;16.80;99.90;;;;;;6039322;23;20178;-62
2022/08/28 04:14:48;;;;;;;8.93;3.40;;;16.90;99.90;;;;;;6063588;23;20207;-61
2022/08/28 04:17:17;;;;;;;7.47;3.90;;;16.90;99.90;;;;;;6063989;23;20175;-62
2022/08/28 04:20:09;;;;;;;6.93;3.50;;;16.90;99.90;;;;;;6019173;23;20169;-62
2022/08/28 04:22:38;;;;;;;10.07;3.77;;;16.80;99.90;;;;;;6038427;23;20662;-61
2022/08/28 04:25:08;;;;;;;8.47;3.43;;;16.80;99.90;;;;;;6065128;23;20251;-62
2022/08/28 04:27:39;;;;;;;10.77;3.70;;;16.80;99.90;;;;;;6064494;23;20197;-62
2022/08/28 04:30:08;;;;;;;12.07;3.40;;;16.80;99.90;;;;;;6039620;23;20219;-62
2022/08/28 04:32:38;;;;;;;9.03;4.13;;;16.80;99.90;;;;;;6064082;23;20171;-62
2022/08/28 04:35:10;;;;;;;6.20;3.50;;;16.80;99.90;;;;;;6066029;23;20204;-62
2022/08/28 04:37:39;;;;;;;12.00;4.03;;;16.70;99.90;;;;;;6063327;23;20167;-62
2022/08/28 04:40:10;;;;;;;5.43;3.47;;;16.70;99.90;;;;;;6063234;23;20654;-62
2022/08/28 04:42:41;;;;;;;6.27;3.57;;;16.70;99.90;;;;;;6061842;23;20167;-62
2022/08/28 04:45:10;;;;;;;10.63;3.50;;;16.70;99.90;;;;;;6065397;23;20257;-62
2022/08/28 04:47:39;;;;;;;9.93;3.63;;;16.70;99.90;;;;;;6037987;23;20512;-62
2022/08/28 04:50:08;;;;;;;7.60;3.37;;;16.70;99.90;;;;;;6064215;23;20277;-62
2022/08/28 04:52:37;;;;;;;11.03;3.93;;;16.70;99.90;;;;;;6063816;23;20253;-62
2022/08/28 04:55:06;;;;;;;7.73;3.33;;;16.70;99.90;;;;;;6064412;23;20172;-62
2022/08/28 04:57:34;;;;;;;6.50;3.43;;;16.70;99.90;;;;;;6065281;23;20241;-62
2022/08/28 05:00:07;;;;;;;12.50;3.80;;;16.60;99.90;;;;;;6036677;23;20172;-62
2022/08/28 05:02:36;;;;;;;7.73;3.57;;;16.60;99.90;;;;;;6038307;23;20621;-62
2022/08/28 05:05:05;;;;;;;7.70;3.63;;;16.60;99.90;;;;;;6042156;23;20172;-62
2022/08/28 05:07:34;;;;;;;7.33;3.30;;;16.60;99.90;;;;;;6066000;23;20173;-62
2022/08/28 05:10:02;;;;;;;7.03;2.97;;;16.60;99.90;;;;;;6067022;23;20190;-62
2022/08/28 05:12:34;;;;;;;8.50;3.23;;;16.50;99.90;;;;;;6066527;23;20168;-62
2022/08/28 05:15:03;;;;;;;7.93;3.33;;;16.60;99.90;;;;;;6067940;23;20252;-62
2022/08/28 05:17:33;;;;;;;7.80;3.40;;;16.60;99.90;;;;;;6064855;23;20174;-62
2022/08/28 05:20:02;;;;;;;9.27;3.87;;;16.60;99.90;;;;;;6067064;23;20165;-62
2022/08/28 05:22:30;;;;;;;11.30;3.80;;;16.60;99.90;;;;;;6039671;23;20246;-62
2022/08/28 05:25:00;;;;;;;8.90;3.80;;;16.60;99.90;;;;;;6067727;23;20176;-63
2022/08/28 05:27:29;;;;;;;4.73;3.30;;;16.60;99.90;;;;;;6065794;23;20224;-62
2022/08/28 05:29:57;;;;;;;12.10;3.13;;;16.60;99.90;;;;;;6066200;23;20212;-62
2022/08/28 05:32:29;;;;;;;10.13;3.40;;;16.60;99.90;;;;;;6065803;23;20687;-62
2022/08/28 05:34:59;;;;;;;7.17;3.30;;;16.60;99.90;;;;;;6066443;23;20195;-62
2022/08/28 05:37:27;;;;;;;9.13;3.10;;;16.60;99.90;;;;;;6066196;23;20197;-62
2022/08/28 05:39:56;;;;;;;9.70;3.53;;;16.70;99.90;;;;;;6066023;23;20174;-62
2022/08/28 05:42:26;;;;;;;9.50;3.30;;;16.70;99.90;;;;;;6065785;23;20207;-62
2022/08/28 05:44:58;;;;;;;7.47;3.03;;;16.70;99.90;;;;;;6041530;23;20174;-62
2022/08/28 05:47:27;;;;;;;8.77;3.40;;;16.70;99.90;;;;;;6064574;23;20534;-62
2022/08/28 05:49:55;;;;;;;7.10;2.87;;;16.70;99.90;;;;;;6066960;23;20222;-62
2022/08/28 05:52:27;;;;;;;7.70;2.87;;;16.70;99.90;;;;;;6066783;23;20202;-62
2022/08/28 05:54:56;;;;;;;13.40;3.20;;;16.80;99.90;;;;;;6064809;23;20261;-62
2022/08/28 05:57:24;;;;;;;8.17;3.10;;;16.80;99.90;;;;;;6064008;23;20171;-62
2022/08/28 05:59:53;;;;;;;13.93;3.00;;;16.80;99.90;;;;;;6065547;23;20245;-62
2022/08/28 06:02:21;;;;;;;4.43;2.73;;;16.80;99.90;;;;;;6039947;23;20253;-62
2022/08/28 06:04:52;;;;;;;9.13;2.97;;;16.80;99.90;;;;;;6066935;23;20183;-62
2022/08/28 06:07:20;;;;;;;6.83;2.70;;;16.90;99.90;;;;;;6066083;23;20685;-62
2022/08/28 06:09:50;;;;;;;9.83;2.60;;;16.90;99.90;;;;;;6039077;23;20180;-62
2022/08/28 06:12:19;;;;;;;7.83;3.00;;;17.00;99.90;;;;;;6066077;23;20169;-62
2022/08/28 06:14:47;;;;;;;6.83;3.13;;;17.00;99.90;;;;;;6064839;23;20532;-63
2022/08/28 06:17:17;;;;;;;3.30;2.60;;;17.20;99.90;;;;;;6061875;23;20612;-62
2022/08/28 06:19:50;;;;;;;6.83;2.87;;;17.30;99.90;;;;;;6037018;23;20167;-62
2022/08/28 06:22:19;;;;;;;9.73;3.10;;;17.30;99.90;;;;;;6060736;23;20689;-62
2022/08/28 06:24:47;;;;;;;6.70;2.73;;;17.30;99.90;;;;;;6040056;23;20250;-62
2022/08/28 06:27:17;;;;;;;8.77;2.70;;;17.40;99.90;;;;;;6064326;23;20572;-62
2022/08/28 06:29:45;;;;;;;7.97;2.87;;;17.60;99.90;;;;;;6065985;23;20234;-62
2022/08/28 06:32:13;;;;;;;6.97;2.90;;;17.60;99.90;;;;;;6038288;23;20269;-62
2022/08/28 06:34:42;;;;;;;10.77;2.70;;;17.70;99.90;;;;;;6065697;23;20182;-62
2022/08/28 06:37:10;;;;;;;6.30;2.77;;;17.80;99.90;;;;;;6065208;23;20235;-61
2022/08/28 06:39:38;;;;;;;6.57;2.80;;;17.80;99.90;;;;;;6040756;23;20788;-62
2022/08/28 06:42:07;;;;;;;4.50;2.87;;;17.80;99.90;;;;;;6040085;23;20203;-62
2022/08/28 06:44:38;;;;;;;9.70;3.13;;;17.90;99.90;;;;;;6065170;23;20195;-62
2022/08/28 06:47:06;;;;;;;8.77;3.20;;;18.00;99.90;;;;;;6066212;23;20652;-62
2022/08/28 06:49:34;;;;;;;10.83;3.63;;;18.00;99.90;;;;;;6065700;23;20176;-62
2022/08/28 06:52:03;;;;;;;7.70;3.07;;;18.10;99.90;;;;;;6064843;23;20198;-62
2022/08/28 06:54:31;;;;;;;9.80;3.30;;;18.20;99.90;;;;;;6065504;23;20251;-62
2022/08/28 06:57:00;;;;;;;8.20;3.40;;;18.30;99.90;;;;;;6066221;23;20247;-62
2022/08/28 06:59:28;;;;;;;6.47;2.77;;;18.30;99.90;;;;;;6066599;23;20173;-61
2022/08/28 07:02:02;;;;;;;8.87;3.40;;;18.40;99.90;;;;;;6040498;23;20617;-62
2022/08/28 07:04:31;;;;;;;8.87;3.50;;;18.40;99.90;;;;;;6066273;23;20168;-61
2022/08/28 07:06:59;;;;;;;4.40;2.80;;;18.50;99.90;;;;;;6064771;23;20901;-62
2022/08/28 07:09:27;;;;;;;8.60;3.00;;;18.60;99.90;;;;;;6065231;23;20171;-61
2022/08/28 07:11:55;;;;;;;12.27;3.13;;;18.50;99.90;;;;;;6064567;23;20188;-61
2022/08/28 07:14:25;;;;;;;6.17;3.20;;;18.70;99.90;;;;;;6065289;23;20183;-61
2022/08/28 07:16:54;;;;;;;6.03;2.60;;;18.80;99.90;;;;;;6038690;23;20172;-62
2022/08/28 07:19:25;;;;;;;6.40;3.10;;;18.90;99.90;;;;;;6064515;23;20594;-62
2022/08/28 07:21:54;;;;;;;7.37;2.73;;;19.00;99.90;;;;;;6040075;23;20168;-62
2022/08/28 07:24:23;;;;;;;6.53;2.73;;;19.10;99.90;;;;;;6066615;23;20168;-61
2022/08/28 07:26:51;;;;;;;10.47;2.87;;;19.20;99.90;;;;;;6065252;23;20204;-61
2022/08/28 07:29:21;;;;;;;6.13;3.00;;;19.20;99.90;;;;;;6063858;23;20200;-62
2022/08/28 07:31:51;;;;;;;6.80;3.27;;;19.30;99.90;;;;;;6064412;23;20278;-60
2022/08/28 07:34:22;;;;;;;4.10;2.57;;;19.40;99.90;;;;;;6065493;23;20192;-58
2022/08/28 07:37:03;;;;;;;4.57;2.53;;;19.50;99.90;;;;;;6065693;23;20176;-62
2022/08/28 07:39:31;;;;;;;8.90;2.40;;;19.60;99.90;;;;;;6066791;23;20665;-64
2022/08/28 07:41:59;;;;;;;8.80;2.70;;;19.70;99.90;;;;;;6061281;23;20194;-62
2022/08/28 07:47:16;;;;;;;6.93;2.83;;;20.00;99.90;;;;;;6063304;23;20172;-62
2022/08/28 07:49:45;;;;;;;5.50;3.10;;;20.10;99.90;;;;;;6063703;23;20727;-62
2022/08/28 07:52:18;;;;;;;9.57;2.87;;;20.30;99.90;;;;;;6036536;23;20176;-62
2022/08/28 07:54:47;;;;;;;8.40;2.77;;;20.20;99.90;;;;;;6065632;23;20247;-61
2022/08/28 07:57:16;;;;;;;4.13;2.50;;;20.20;99.90;;;;;;6064284;23;20255;-61
2022/08/28 07:59:45;;;;;;;6.90;3.20;;;20.10;99.90;;;;;;6064846;23;20200;-62
2022/08/28 08:02:13;;;;;;;5.97;2.53;;;20.10;99.90;;;;;;6064023;23;20697;-62
2022/08/28 08:04:42;;;;;;;3.80;2.40;;;20.30;99.90;;;;;;6065625;23;20216;-61
2022/08/28 08:07:11;;;;;;;5.87;2.50;;;20.50;99.90;;;;;;6065166;23;20192;-62
2022/08/28 08:09:43;;;;;;;13.03;3.00;;;20.50;99.90;;;;;;6066199;23;20251;-62
2022/08/28 08:12:13;;;;;;;8.37;2.60;;;20.60;99.90;;;;;;6064188;23;20271;-62
2022/08/28 08:14:42;;;;;;;6.80;2.77;;;20.50;99.90;;;;;;6062102;23;20255;-62
2022/08/28 08:17:11;;;;;;;7.03;2.77;;;20.60;99.90;;;;;;6063462;23;20172;-61
2022/08/28 08:19:39;;;;;;;9.03;3.00;;;20.60;99.90;;;;;;6039968;23;20183;-62
2022/08/28 08:22:08;;;;;;;7.00;2.40;;;20.70;99.90;;;;;;6062504;23;20239;-62
2022/08/28 08:24:36;;;;;;;14.10;2.83;;;20.80;99.90;;;;;;6065585;23;20206;-62
2022/08/28 08:27:06;;;;;;;10.37;2.60;;;21.00;99.90;;;;;;6062444;23;20203;-62
2022/08/28 08:29:37;;;;;;;5.83;2.23;;;21.20;99.90;;;;;;6063146;23;20527;-62
2022/08/28 08:32:07;;;;;;;3.77;2.30;;;21.20;99.90;;;;;;6063697;23;20792;-64
2022/08/28 08:34:38;;;;;;;9.20;2.70;;;21.10;99.90;;;;;;6062175;23;20832;-62
2022/08/28 08:37:08;;;;;;;11.30;3.10;;;21.20;99.90;;;;;;6062096;23;20196;-62
2022/08/28 08:39:37;;;;;;;6.77;2.40;;;21.10;99.90;;;;;;6061792;23;20168;-61
2022/08/28 08:42:10;;;;;;;5.80;2.53;;;21.20;99.90;;;;;;6039054;23;20192;-62
2022/08/28 08:44:41;;;;;;;5.17;2.40;;;21.40;99.90;;;;;;6064727;23;20152;-62
2022/08/28 08:47:16;;;;;;;7.30;2.70;;;21.60;99.90;;;;;;6064289;23;20267;-62
2022/08/28 08:49:50;;;;;;;9.60;2.70;;;21.70;99.90;;;;;;6062772;23;20539;-62
2022/08/28 08:52:38;;;;;;;7.13;2.77;;;21.70;99.90;;;;;;6065171;23;20279;-62
2022/08/28 08:55:19;;;;;;;5.23;2.70;;;21.80;99.90;;;;;;6045918;23;20260;-62
2022/08/28 08:57:56;;;;;;;10.00;2.53;;;22.00;99.90;;;;;;6065184;23;20629;-62
2022/08/28 09:00:24;;;;;;;10.13;2.70;;;22.10;99.90;;;;;;6063328;23;20255;-62
2022/08/28 09:03:01;;;;;;;7.47;2.43;;;22.20;99.90;;;;;;6064031;23;20229;-62
2022/08/28 09:05:42;;;;;;;7.77;2.40;;;22.40;99.90;;;;;;6064037;23;20174;-62
2022/08/28 09:08:18;;;;;;;7.93;2.80;;;22.50;99.90;;;;;;6065056;23;20191;-62
2022/08/28 09:10:53;;;;;;;9.03;2.53;;;22.40;99.90;;;;;;6065723;23;20187;-62
2022/08/28 09:13:31;;;;;;;7.47;2.50;;;22.20;99.90;;;;;;6064536;23;20201;-62
2022/08/28 09:16:22;;;;;;;7.57;2.60;;;22.40;99.90;;;;;;6065810;23;20537;-62
2022/08/28 09:18:55;;;;;;;4.13;2.57;;;22.50;99.90;;;;;;6065781;23;20170;-62
2022/08/28 09:21:25;;;;;;;3.73;2.27;;;22.90;99.90;;;;;;6067239;23;20257;-62
2022/08/28 09:24:00;;;;;;;5.67;2.40;;;23.00;99.90;;;;;;6065479;23;20665;-62
2022/08/28 09:26:32;;;;;;;6.57;2.30;;;23.00;99.90;;;;;;6066548;23;20206;-62
2022/08/28 09:29:06;;;;;;;5.57;2.37;;;23.10;99.90;;;;;;6065960;23;20235;-62
2022/08/28 09:31:38;;;;;;;4.60;2.53;;;23.20;99.90;;;;;;6066766;23;20182;-62
2022/08/28 09:34:31;;;;;;;4.63;2.53;;;23.20;99.90;;;;;;6066554;23;20670;-62
2022/08/28 09:37:08;;;;;;;4.20;2.50;;;23.30;99.90;;;;;;6041373;23;20176;-62
2022/08/28 09:39:41;;;;;;;11.17;2.67;;;23.30;99.90;;;;;;6065701;23;20489;-62
2022/08/28 09:45:17;;;;;;;5.13;2.47;;;23.60;99.90;;;;;;6065462;23;20177;-62
2022/08/28 09:47:48;;;;;;;7.43;2.50;;;23.70;99.90;;;;;;6064185;23;20226;-62
2022/08/28 09:50:31;;;;;;;4.73;2.40;;;23.50;99.90;;;;;;6065634;23;20255;-62
2022/08/28 09:53:14;;;;;;;5.10;2.40;;;23.70;99.90;;;;;;6063396;23;20270;-62
2022/08/28 09:55:53;;;;;;;6.07;2.70;;;23.90;99.90;;;;;;6064755;23;20220;-63
2022/08/28 09:58:26;;;;;;;6.73;2.60;;;23.90;99.90;;;;;;6062227;23;20172;-62
2022/08/28 10:01:00;;;;;;;3.23;2.10;;;24.10;99.90;;;;;;6066358;23;20252;-62
2022/08/28 10:03:36;;;;;;;12.37;2.50;;;24.20;99.90;;;;;;6064411;23;20160;-63
2022/08/28 10:06:11;;;;;;;7.37;2.37;;;24.50;99.90;;;;;;6065241;23;20660;-62
2022/08/28 10:09:02;;;;;;;4.47;2.30;;;24.30;99.90;;;;;;6064134;23;20235;-62
2022/08/28 10:11:41;;;;;;;8.55;2.30;;;24.50;99.90;;;;;;6039535;23;20173;-62
2022/08/28 10:14:27;;;;;;;4.07;2.30;;;24.80;99.90;;;;;;6066072;23;20471;-62
2022/08/28 10:17:07;;;;;;;5.20;2.40;;;25.10;99.90;;;;;;6040249;23;20180;-63
2022/08/28 10:19:43;;;;;;;2.45;2.25;;;25.10;99.90;;;;;;6038838;23;20627;-63
2022/08/28 10:22:29;;;;;;;3.80;2.20;;;25.30;99.90;;;;;;6012539;23;20193;-63
2022/08/28 10:25:10;;;;;;;3.42;2.42;;;25.50;99.90;;;;;;6064557;23;20198;-62
2022/08/28 10:27:56;;;;;;;3.55;2.33;;;25.50;99.90;;;;;;6061809;23;20619;-63
2022/08/28 10:30:25;;;;;;;5.55;2.38;;;25.80;99.90;;;;;;6063884;23;20187;-62
2022/08/28 10:33:24;;;;;;;5.93;2.30;;;26.00;99.90;;;;;;6064400;23;20646;-63
2022/08/28 10:35:57;;;;;;;2.50;1.88;;;26.20;99.90;;;;;;6064577;23;20224;-65
2022/08/28 10:38:37;;;;;;;4.43;2.05;;;26.30;99.90;;;;;;6037976;23;20170;-64
2022/08/28 10:41:10;;;;;;;3.15;2.00;;;26.20;99.90;;;;;;6039250;23;20174;-66
2022/08/28 10:43:46;;;;;;;8.95;2.22;;;26.30;99.90;;;;;;6063624;23;20489;-64
2022/08/28 10:46:19;;;;;;;2.08;1.92;;;26.40;99.90;;;;;;6039706;23;20170;-64
2022/08/28 10:49:00;;;;;;;5.40;2.30;;;26.50;99.90;;;;;;6038761;23;20160;-64
2022/08/28 10:51:35;;;;;;;4.93;1.90;;;26.50;99.90;;;;;;6063794;23;20590;-64
2022/08/28 10:54:19;;;;;;;3.60;1.90;;;26.50;99.90;;;;;;6038896;23;20690;-64
2022/08/28 10:56:54;;;;;;;3.85;1.83;;;26.70;99.90;;;;;;6015350;23;20513;-64
2022/08/28 10:59:25;;;;;;;5.57;2.28;;;26.90;99.90;;;;;;6039292;23;20227;-64
2022/08/28 11:01:53;;;;;;;5.13;1.92;;;27.30;99.90;;;;;;6064553;23;20175;-64
2022/08/28 11:04:27;;;;;;;4.43;2.05;;;27.40;99.90;;;;;;6065249;23;20168;-64
2022/08/28 11:07:02;;;;;;;2.95;2.08;;;27.10;99.90;;;;;;6065181;23;20255;-65
2022/08/28 11:09:34;;;;;;;2.72;1.85;;;27.40;99.90;;;;;;6038650;23;20263;-64
2022/08/28 11:12:06;;;;;;;2.83;1.70;;;27.50;99.90;;;;;;6063095;23;20235;-64
2022/08/28 11:14:36;;;;;;;2.45;1.88;;;27.10;99.90;;;;;;6062510;23;20555;-64
2022/08/28 11:17:39;;;;;;;1.90;1.77;;;27.00;99.90;;;;;;6039583;23;20168;-64
2022/08/28 11:20:17;;;;;;;2.90;1.92;;;27.20;99.90;;;;;;6064464;23;20547;-64
2022/08/28 11:22:48;;;;;;;6.50;2.35;;;27.70;99.90;;;;;;6065277;23;20172;-64
2022/08/28 11:25:21;;;;;;;2.15;1.88;;;28.00;99.90;;;;;;6065302;23;20228;-64
2022/08/28 11:28:17;;;;;;;4.50;2.15;;;27.80;99.90;;;;;;6034464;23;20171;-64
2022/08/28 11:30:47;;;;;;;2.50;1.90;;;27.70;99.90;;;;;;6059411;23;20255;-64
2022/08/28 11:33:38;;;;;;;6.20;2.28;;;27.20;99.90;;;;;;6035783;23;20578;-64
2022/08/28 11:36:11;;;;;;;2.05;1.85;;;26.50;99.90;;;;;;6052559;23;20546;-64
2022/08/28 11:39:01;;;;;;;2.30;1.90;;;26.40;99.90;;;;;;6060178;23;20662;-64
2022/08/28 11:41:31;;;;;;;2.92;2.10;;;26.40;99.90;;;;;;6059448;23;20169;-64
2022/08/28 11:44:41;;;;;;;6.03;1.90;;;26.70;99.90;;;;;;6036418;23;20561;-64
2022/08/28 11:47:50;;;;;;;6.00;1.70;;;26.50;99.90;;;;;;5924878;24;20451;-63
2022/08/28 11:50:32;;;;;;;3.65;1.92;;;26.50;99.90;;;;;;6063328;23;20528;-63
2022/08/28 11:53:33;;;;;;;2.10;1.90;;;26.60;99.90;;;;;;6064710;23;20222;-63
2022/08/28 11:56:27;;;;;;;7.60;1.88;;;26.60;99.90;;;;;;6039734;23;20227;-63
2022/08/28 11:59:12;;;;;;;3.47;2.10;;;26.90;99.90;;;;;;6063444;23;20447;-63
2022/08/28 12:01:41;;;;;;;3.80;2.00;;;26.80;99.90;;;;;;6062208;23;20196;-63
2022/08/28 12:04:12;;;;;;;5.50;1.70;;;26.80;99.90;;;;;;6061782;23;20226;-63
2022/08/28 12:06:49;;;;;;;2.63;1.80;;;27.20;99.90;;;;;;6062106;23;20229;-63
2022/08/28 12:09:41;;;;;;;4.05;1.90;;;27.00;99.90;;;;;;6064607;23;20243;-64
2022/08/28 12:12:29;;;;;;;5.70;1.88;;;27.20;99.90;;;;;;6063362;23;20225;-63
2022/08/28 12:14:59;;;;;;;6.68;1.90;;;27.10;99.90;;;;;;6062852;23;20220;-63
2022/08/28 12:17:42;;;;;;;1.80;1.70;;;26.80;99.90;;;;;;6063700;23;20190;-63
2022/08/28 12:20:18;;;;;;;2.40;1.73;;;26.80;99.90;;;;;;6062126;23;20696;-64
2022/08/28 12:22:51;;;;;;;2.05;1.85;;;26.80;99.90;;;;;;6064949;23;21161;-64
2022/08/28 12:25:29;;;;;;;4.73;1.90;;;26.30;99.90;;;;;;6040071;23;20232;-64
2022/08/28 12:27:59;;;;;;;2.90;1.90;;;26.30;99.90;;;;;;6067323;23;20167;-63
2022/08/28 12:30:31;;;;;;;5.43;1.93;;;26.30;99.90;;;;;;6042750;23;20268;-63
2022/08/28 12:33:08;;;;;;;2.20;1.80;;;26.50;99.90;;;;;;6068050;23;20204;-63
2022/08/28 12:35:36;;;;;;;3.00;1.83;;;26.40;99.90;;;;;;6067815;23;20251;-63
2022/08/28 12:38:08;;;;;;;3.90;1.77;;;26.20;99.90;;;;;;6067768;23;20335;-63
2022/08/28 12:40:53;;;;;;;3.03;1.67;;;26.10;99.90;;;;;;6068049;23;20172;-63
2022/08/28 12:43:29;;;;;;;7.67;1.73;;;25.70;99.90;;;;;;6042615;23;20191;-62
2022/08/28 12:46:01;;;;;;;1.97;1.50;;;25.70;99.90;;;;;;6042022;23;20267;-63
2022/08/28 12:48:32;;;;;;;3.33;2.03;;;25.80;99.90;;;;;;6067677;23;20251;-62
2022/08/28 12:51:04;;;;;;;5.33;2.23;;;26.00;99.90;;;;;;6067833;23;20192;-63
2022/08/28 12:53:42;;;;;;;3.30;2.00;;;26.10;99.90;;;;;;6067542;23;20542;-63
2022/08/28 12:56:14;;;;;;;2.30;1.70;;;26.20;99.90;;;;;;6067724;23;20228;-62
2022/08/28 12:58:43;;;;;;;5.23;1.83;;;26.30;99.90;;;;;;6066873;23;20164;-62
2022/08/28 13:01:15;;;;;;;2.80;1.90;;;26.40;99.90;;;;;;6067509;23;20202;-62
2022/08/28 13:03:46;;;;;;;3.87;1.87;;;26.00;99.90;;;;;;6041182;23;20191;-62
2022/08/28 13:06:24;;;;;;;3.60;1.83;;;25.70;99.90;;;;;;6067533;23;20157;-63
2022/08/28 13:08:57;;;;;;;2.50;1.60;;;25.90;99.90;;;;;;6067711;23;20176;-63
2022/08/28 13:11:30;;;;;;;2.87;1.60;;;26.20;99.90;;;;;;6042269;23;20543;-63
2022/08/28 13:13:59;;;;;;;7.57;2.00;;;26.20;99.90;;;;;;6065888;23;20275;-63
2022/08/28 13:16:39;;;;;;;3.03;1.33;;;26.30;99.90;;;;;;6067402;23;20677;-62
2022/08/28 13:19:21;;;;;;;3.60;1.87;;;26.30;99.90;;;;;;6041143;23;20267;-63
2022/08/28 13:21:57;;;;;;;6.57;1.80;;;26.00;99.90;;;;;;6066833;23;20312;-62